createdAt,value
2023-08-15T00:00:18.408Z,100729.81
2023-08-15T00:01:22.772Z,100731.31
2023-08-15T00:02:26.545Z,100734.09
2023-08-15T00:03:30.465Z,100728.19
2023-08-15T00:04:34.292Z,100737.75
2023-08-15T00:05:39.024Z,100734.66
2023-08-15T00:06:42.677Z,100740.16
2023-08-15T00:07:46.345Z,100740.16
2023-08-15T00:08:50.369Z,100740.97
2023-08-15T00:09:54.093Z,100743.38
2023-08-15T00:10:57.797Z,100745.00
2023-08-15T00:12:01.514Z,100739.00
2023-08-15T00:13:05.475Z,100706.97
2023-08-15T00:14:10.903Z,100732.69
2023-08-15T00:15:14.680Z,100737.41
2023-08-15T00:16:18.409Z,100733.50
2023-08-15T00:17:22.395Z,100733.16
2023-08-15T00:18:26.285Z,100736.03
2023-08-15T00:19:29.997Z,100739.25
2023-08-15T00:20:33.873Z,100731.66
2023-08-15T00:21:37.711Z,100745.91
2023-08-15T00:22:41.477Z,100736.81
2023-08-15T00:23:45.170Z,100748.78
2023-08-15T00:24:48.813Z,100752.34
2023-08-15T00:25:52.486Z,100744.06
2023-08-15T00:26:56.383Z,100745.34
2023-08-15T00:28:00.116Z,100748.88
2023-08-15T00:29:03.891Z,100710.63
2023-08-15T00:30:10.640Z,100745.78
2023-08-15T00:31:14.462Z,100755.31
2023-08-15T00:32:18.311Z,100753.84
2023-08-15T00:33:21.986Z,100759.47
2023-08-15T00:34:25.651Z,100765.13
2023-08-15T00:35:29.338Z,100754.56
2023-08-15T00:36:33.127Z,100768.00
2023-08-15T00:37:37.138Z,100768.47
2023-08-15T00:38:41.046Z,100768.09
2023-08-15T00:39:44.775Z,100766.47
2023-08-15T00:40:48.642Z,100725.13
2023-08-15T00:41:52.401Z,100760.97
2023-08-15T00:42:56.224Z,100754.91
2023-08-15T00:43:59.921Z,100777.63
2023-08-15T00:45:03.633Z,100774.53
2023-08-15T00:46:09.702Z,100776.03
2023-08-15T00:47:15.201Z,100780.63
2023-08-15T00:48:19.293Z,100774.41
2023-08-15T00:49:23.266Z,100772.13
2023-08-15T00:50:27.320Z,100780.88
2023-08-15T00:51:31.264Z,100770.72
2023-08-15T00:52:35.366Z,100785.78
2023-08-15T00:53:39.517Z,100776.03
2023-08-15T00:54:45.131Z,100780.03
2023-08-15T00:55:48.936Z,100786.81
2023-08-15T00:56:52.770Z,100778.19
2023-08-15T00:57:57.243Z,100784.50
2023-08-15T00:59:02.549Z,100781.91
2023-08-15T01:00:07.634Z,100784.66
2023-08-15T01:01:19.313Z,100779.16
2023-08-15T01:02:23.195Z,100780.75
2023-08-15T01:03:27.238Z,100790.19
2023-08-15T01:04:32.340Z,100781.91
2023-08-15T01:05:36.838Z,100782.72
2023-08-15T01:06:40.528Z,100767.75
2023-08-15T01:07:45.092Z,100796.13
2023-08-15T01:08:49.514Z,100796.59
2023-08-15T01:09:53.240Z,100758.34
2023-08-15T01:10:57.053Z,100808.91
2023-08-15T01:12:13.689Z,100806.16
2023-08-15T01:13:24.545Z,100817.19
2023-08-15T01:14:32.634Z,100817.88
2023-08-15T01:15:41.584Z,100826.13
2023-08-15T01:16:49.874Z,100827.75
2023-08-15T01:18:02.962Z,100828.91
2023-08-15T01:19:12.487Z,100835.81
2023-08-15T01:20:22.408Z,100842.22
2023-08-15T01:21:31.205Z,100825.44
2023-08-15T01:22:38.287Z,100849.69
2023-08-15T01:23:44.860Z,100827.75
2023-08-15T01:24:48.664Z,100852.66
2023-08-15T01:25:56.248Z,100853.00
2023-08-15T01:27:00.059Z,100847.94
2023-08-15T01:28:03.982Z,100853.13
2023-08-15T01:29:07.672Z,100847.25
2023-08-15T01:30:13.285Z,100854.84
2023-08-15T01:31:20.740Z,100857.34
2023-08-15T01:32:41.364Z,100837.03
2023-08-15T01:33:52.570Z,100854.41
2023-08-15T01:35:02.792Z,100850.91
2023-08-15T01:36:10.768Z,100862.53
2023-08-15T01:37:23.870Z,100858.72
2023-08-15T01:38:34.603Z,100863.22
2023-08-15T01:39:43.344Z,100860.44
2023-08-15T01:40:50.721Z,100855.97
2023-08-15T01:41:55.538Z,100861.13
2023-08-15T01:43:02.551Z,100853.13
2023-08-15T01:44:08.372Z,100869.53
2023-08-15T01:45:13.495Z,100862.88
2023-08-15T01:46:17.353Z,100869.19
2023-08-15T01:47:22.023Z,100864.91
2023-08-15T01:48:26.174Z,100868.94
2023-08-15T01:49:30.048Z,100868.59
2023-08-15T01:50:33.792Z,100871.47
2023-08-15T01:51:37.525Z,100869.59
2023-08-15T01:52:41.182Z,100879.13
2023-08-15T01:53:45.010Z,100877.63
2023-08-15T01:54:50.490Z,100878.88
2023-08-15T01:55:54.170Z,100874.66
2023-08-15T01:56:57.832Z,100878.56
2023-08-15T01:58:01.800Z,100870.72
2023-08-15T01:59:05.725Z,100863.81
2023-08-15T02:00:10.341Z,100874.03
2023-08-15T02:01:14.079Z,100874.50
2023-08-15T02:02:17.758Z,100868.88
2023-08-15T02:03:21.501Z,100871.38
2023-08-15T02:04:25.206Z,100881.28
2023-08-15T02:05:29.019Z,100879.78
2023-08-15T02:06:32.785Z,100836.38
2023-08-15T02:07:36.502Z,100880.66
2023-08-15T02:08:40.157Z,100879.88
2023-08-15T02:09:43.894Z,100880.66
2023-08-15T02:10:49.199Z,100891.72
2023-08-15T02:11:53.049Z,100884.22
2023-08-15T02:12:56.772Z,100884.22
2023-08-15T02:14:01.362Z,100885.84
2023-08-15T02:15:05.575Z,100887.59
2023-08-15T02:16:09.416Z,100898.78
2023-08-15T02:17:13.217Z,100894.06
2023-08-15T02:18:16.941Z,100891.72
2023-08-15T02:19:20.735Z,100887.44
2023-08-15T02:20:24.455Z,100893.44
2023-08-15T02:21:28.170Z,100891.56
2023-08-15T02:22:33.005Z,100894.78
2023-08-15T02:23:36.736Z,100877.66
2023-08-15T02:24:40.437Z,100885.59
2023-08-15T02:25:45.044Z,100888.44
2023-08-15T02:26:50.408Z,100885.78
2023-08-15T02:27:54.118Z,100887.06
2023-08-15T02:28:57.855Z,100880.38
2023-08-15T02:30:01.549Z,100883.13
2023-08-15T02:31:05.264Z,100879.19
2023-08-15T02:32:09.191Z,100883.56
2023-08-15T02:33:12.893Z,100880.44
2023-08-15T02:34:18.771Z,100878.94
2023-08-15T02:35:22.462Z,100878.84
2023-08-15T02:36:26.163Z,100879.41
2023-08-15T02:37:29.839Z,100875.47
2023-08-15T02:38:33.586Z,100876.28
2023-08-15T02:39:37.307Z,100880.66
2023-08-15T02:40:44.259Z,100879.06
2023-08-15T02:41:52.508Z,100881.94
2023-08-15T02:42:56.215Z,100884.44
2023-08-15T02:43:59.858Z,100885.25
2023-08-15T02:45:03.485Z,100880.88
2023-08-15T02:46:07.266Z,100882.72
2023-08-15T02:47:10.987Z,100885.25
2023-08-15T02:48:14.722Z,100882.56
2023-08-15T02:49:18.437Z,100867.66
2023-08-15T02:50:22.121Z,100885.44
2023-08-15T02:51:25.894Z,100882.66
2023-08-15T02:52:29.547Z,100879.72
2023-08-15T02:53:33.255Z,100880.81
2023-08-15T02:54:37.037Z,100879.38
2023-08-15T02:55:40.776Z,100875.56
2023-08-15T02:56:44.476Z,100873.69
2023-08-15T02:57:49.786Z,100876.53
2023-08-15T02:58:53.423Z,100873.78
2023-08-15T02:59:57.128Z,100865.03
2023-08-15T03:01:00.887Z,100868.69
2023-08-15T03:02:04.657Z,100876.19
2023-08-15T03:03:08.507Z,100870.50
2023-08-15T03:04:12.221Z,100866.78
2023-08-15T03:05:15.967Z,100869.09
2023-08-15T03:06:19.658Z,100847.97
2023-08-15T03:07:23.617Z,100849.13
2023-08-15T03:08:27.497Z,100864.50
2023-08-15T03:09:31.157Z,100838.97
2023-08-15T03:10:35.247Z,100875.38
2023-08-15T03:11:38.996Z,100867.09
2023-08-15T03:12:42.737Z,100860.38
2023-08-15T03:13:47.998Z,100855.31
2023-08-15T03:14:51.814Z,100862.41
2023-08-15T03:15:56.296Z,100845.81
2023-08-15T03:16:59.957Z,100865.44
2023-08-15T03:18:03.667Z,100859.19
2023-08-15T03:19:07.430Z,100863.91
2023-08-15T03:20:11.813Z,100867.09
2023-08-15T03:21:15.583Z,100873.56
2023-08-15T03:22:19.306Z,100864.53
2023-08-15T03:23:23.064Z,100868.13
2023-08-15T03:24:29.271Z,100858.00
2023-08-15T03:25:33.006Z,100864.16
2023-08-15T03:26:36.707Z,100866.94
2023-08-15T03:27:40.357Z,100856.28
2023-08-15T03:28:44.101Z,100857.91
2023-08-15T03:29:49.482Z,100864.97
2023-08-15T03:30:53.383Z,100852.31
2023-08-15T03:31:57.218Z,100852.72
2023-08-15T03:33:01.243Z,100853.19
2023-08-15T03:34:05.197Z,100829.97
2023-08-15T03:35:09.819Z,100854.47
2023-08-15T03:36:13.459Z,100849.84
2023-08-15T03:37:17.162Z,100851.00
2023-08-15T03:38:21.612Z,100845.41
2023-08-15T03:39:25.437Z,100844.66
2023-08-15T03:40:29.171Z,100833.88
2023-08-15T03:41:32.826Z,100837.16
2023-08-15T03:42:36.611Z,100849.84
2023-08-15T03:43:40.279Z,100846.78
2023-08-15T03:44:44.139Z,100848.81
2023-08-15T03:45:49.555Z,100842.47
2023-08-15T03:46:53.302Z,100831.84
2023-08-15T03:47:57.040Z,100838.63
2023-08-15T03:49:00.923Z,100838.28
2023-08-15T03:50:04.889Z,100833.88
2023-08-15T03:51:08.861Z,100831.75
2023-08-15T03:52:12.534Z,100839.78
2023-08-15T03:53:16.221Z,100837.03
2023-08-15T03:54:19.881Z,100833.44
2023-08-15T03:55:23.683Z,100828.25
2023-08-15T03:56:27.330Z,100835.31
2023-08-15T03:57:31.021Z,100827.75
2023-08-15T03:58:34.757Z,100827.31
2023-08-15T03:59:38.404Z,100827.75
2023-08-15T04:00:42.080Z,100822.72
2023-08-15T04:01:47.423Z,100804.28
2023-08-15T04:02:51.730Z,100772.13
2023-08-15T04:03:55.583Z,100823.63
2023-08-15T04:04:59.306Z,100825.72
2023-08-15T04:06:02.950Z,100819.94
2023-08-15T04:07:06.704Z,100825.09
2023-08-15T04:08:10.410Z,100820.78
2023-08-15T04:09:14.069Z,100814.81
2023-08-15T04:10:17.816Z,100812.47
2023-08-15T04:11:21.482Z,100807.00
2023-08-15T04:12:25.144Z,100814.53
2023-08-15T04:13:28.845Z,100799.25
2023-08-15T04:14:32.480Z,100816.19
2023-08-15T04:15:36.330Z,100809.47
2023-08-15T04:16:40.044Z,100815.47
2023-08-15T04:17:45.498Z,100815.53
2023-08-15T04:18:49.222Z,100798.03
2023-08-15T04:19:53.060Z,100820.31
2023-08-15T04:20:56.745Z,100808.06
2023-08-15T04:22:00.432Z,100799.72
2023-08-15T04:23:04.163Z,100808.63
2023-08-15T04:24:08.499Z,100771.00
2023-08-15T04:25:12.157Z,100798.00
2023-08-15T04:26:15.875Z,100804.06
2023-08-15T04:27:19.982Z,100772.50
2023-08-15T04:28:23.934Z,100802.22
2023-08-15T04:29:27.668Z,100791.59
2023-08-15T04:30:31.700Z,100790.81
2023-08-15T04:31:35.382Z,100796.06
2023-08-15T04:32:39.228Z,100793.75
2023-08-15T04:33:44.621Z,100762.06
2023-08-15T04:34:49.899Z,100781.44
2023-08-15T04:35:53.777Z,100771.13
2023-08-15T04:36:57.588Z,100755.03
2023-08-15T04:38:01.368Z,100783.13
2023-08-15T04:39:05.164Z,100759.03
2023-08-15T04:40:14.006Z,100784.22
2023-08-15T04:41:17.751Z,100781.44
2023-08-15T04:42:21.468Z,100780.59
2023-08-15T04:43:25.127Z,100778.19
2023-08-15T04:44:28.933Z,100744.53
2023-08-15T04:45:32.644Z,100772.59
2023-08-15T04:46:36.314Z,100775.78
2023-08-15T04:47:39.990Z,100766.22
2023-08-15T04:48:45.371Z,100765.13
2023-08-15T04:49:50.256Z,100763.59
2023-08-15T04:50:54.116Z,100763.28
2023-08-15T04:51:58.217Z,100759.69
2023-08-15T04:53:01.927Z,100764.00
2023-08-15T04:54:05.716Z,100764.00
2023-08-15T04:55:10.278Z,100759.28
2023-08-15T04:56:13.966Z,100756.94
2023-08-15T04:57:17.640Z,100747.00
2023-08-15T04:58:21.338Z,100753.34
2023-08-15T04:59:25.011Z,100742.88
2023-08-15T05:00:28.692Z,100750.59
2023-08-15T05:01:32.459Z,100752.91
2023-08-15T05:02:36.299Z,100752.25
2023-08-15T05:03:40.077Z,100735.63
2023-08-15T05:04:45.428Z,100737.00
2023-08-15T05:05:50.131Z,100730.28
2023-08-15T05:06:53.965Z,100737.50
2023-08-15T05:07:57.715Z,100735.59
2023-08-15T05:09:01.470Z,100720.06
2023-08-15T05:10:05.755Z,100728.84
2023-08-15T05:11:09.568Z,100737.84
2023-08-15T05:12:13.265Z,100700.75
2023-08-15T05:13:16.934Z,100727.94
2023-08-15T05:14:20.547Z,100725.53
2023-08-15T05:15:24.215Z,100722.81
2023-08-15T05:16:27.981Z,100727.50
2023-08-15T05:17:32.311Z,100727.84
2023-08-15T05:18:36.260Z,100724.97
2023-08-15T05:19:39.923Z,100713.38
2023-08-15T05:20:47.209Z,100698.00
2023-08-15T05:21:50.898Z,100721.31
2023-08-15T05:22:54.724Z,100717.03
2023-08-15T05:23:58.449Z,100685.53
2023-08-15T05:25:02.199Z,100672.78
2023-08-15T05:26:06.040Z,100716.00
2023-08-15T05:27:13.011Z,100692.47
2023-08-15T05:28:16.712Z,100706.38
2023-08-15T05:29:20.454Z,100703.16
2023-08-15T05:30:24.173Z,100701.47
2023-08-15T05:31:28.759Z,100707.34
2023-08-15T05:32:32.446Z,100708.53
2023-08-15T05:33:36.168Z,100694.59
2023-08-15T05:34:39.901Z,100705.75
2023-08-15T05:35:45.226Z,100700.63
2023-08-15T05:36:48.872Z,100701.44
2023-08-15T05:37:52.587Z,100698.28
2023-08-15T05:38:56.356Z,100696.69
2023-08-15T05:40:02.477Z,100692.31
2023-08-15T05:41:08.020Z,100696.69
2023-08-15T05:42:11.888Z,100685.03
2023-08-15T05:43:15.721Z,100682.25
2023-08-15T05:44:19.425Z,100674.88
2023-08-15T05:45:23.207Z,100686.97
2023-08-15T05:46:26.963Z,100646.25
2023-08-15T05:47:30.739Z,100683.88
2023-08-15T05:48:34.560Z,100679.09
2023-08-15T05:49:38.261Z,100674.66
2023-08-15T05:50:41.972Z,100673.47
2023-08-15T05:51:47.457Z,100674.66
2023-08-15T05:52:51.159Z,100656.72
2023-08-15T05:53:54.842Z,100659.69
2023-08-15T05:54:58.760Z,100664.44
2023-08-15T05:56:02.495Z,100650.41
2023-08-15T05:57:06.534Z,100660.00
2023-08-15T05:58:10.472Z,100662.25
2023-08-15T05:59:14.151Z,100661.75
2023-08-15T06:00:17.966Z,100664.53
2023-08-15T06:01:21.780Z,100658.97
2023-08-15T06:02:25.550Z,100659.75
2023-08-15T06:03:49.512Z,100657.38
2023-08-15T06:04:52.911Z,100642.78
2023-08-15T06:05:57.978Z,100645.63
2023-08-15T06:07:03.316Z,100615.72
2023-08-15T06:08:07.514Z,100638.53
2023-08-15T06:09:11.263Z,100644.69
2023-08-15T06:10:14.913Z,100636.81
2023-08-15T06:11:18.594Z,100636.47
2023-08-15T06:12:22.266Z,100640.91
2023-08-15T06:13:25.916Z,100632.66
2023-08-15T06:14:29.665Z,100633.06
2023-08-15T06:15:33.397Z,100634.28
2023-08-15T06:16:37.067Z,100625.97
2023-08-15T06:17:40.798Z,100625.97
2023-08-15T06:18:44.671Z,100624.06
2023-08-15T06:19:48.484Z,100622.09
2023-08-15T06:20:52.135Z,100620.19
2023-08-15T06:21:55.821Z,100619.50
2023-08-15T06:23:01.172Z,100619.13
2023-08-15T06:24:05.206Z,100617.63
2023-08-15T06:25:09.660Z,100612.88
2023-08-15T06:26:13.349Z,100614.09
2023-08-15T06:27:17.068Z,100620.06
2023-08-15T06:28:20.754Z,100621.31
2023-08-15T06:29:24.597Z,100616.97
2023-08-15T06:30:28.836Z,100614.16
2023-08-15T06:31:33.640Z,100622.94
2023-08-15T06:32:37.388Z,100614.25
2023-08-15T06:33:41.072Z,100608.75
2023-08-15T06:34:44.751Z,100617.88
2023-08-15T06:35:51.227Z,100609.53
2023-08-15T06:36:55.634Z,100604.00
2023-08-15T06:38:01.044Z,100602.81
2023-08-15T06:39:05.038Z,100607.56
2023-08-15T06:40:09.923Z,100606.00
2023-08-15T06:41:13.967Z,100609.94
2023-08-15T06:42:17.648Z,100597.97
2023-08-15T06:43:21.338Z,100602.38
2023-08-15T06:44:27.143Z,100603.94
2023-08-15T06:45:31.292Z,100575.25
2023-08-15T06:46:35.019Z,100562.53
2023-08-15T06:47:38.721Z,100597.22
2023-08-15T06:48:42.815Z,100592.84
2023-08-15T06:49:46.496Z,100594.81
2023-08-15T06:50:50.219Z,100558.06
2023-08-15T06:51:53.953Z,100587.22
2023-08-15T06:52:57.688Z,100584.81
2023-08-15T06:54:03.039Z,100586.78
2023-08-15T06:55:07.463Z,100550.78
2023-08-15T06:56:11.174Z,100587.16
2023-08-15T06:57:14.823Z,100581.56
2023-08-15T06:58:18.729Z,100559.13
2023-08-15T06:59:22.448Z,100584.34
2023-08-15T07:00:26.205Z,100591.47
2023-08-15T07:01:29.901Z,100574.88
2023-08-15T07:02:33.612Z,100580.44
2023-08-15T07:03:37.441Z,100567.78
2023-08-15T07:04:41.282Z,100580.06
2023-08-15T07:05:45.381Z,100576.50
2023-08-15T07:06:49.060Z,100559.38
2023-08-15T07:07:52.689Z,100567.00
2023-08-15T07:08:56.401Z,100569.78
2023-08-15T07:10:01.784Z,100559.09
2023-08-15T07:11:06.456Z,100559.53
2023-08-15T07:12:10.535Z,100557.56
2023-08-15T07:13:14.228Z,100559.16
2023-08-15T07:14:17.986Z,100558.78
2023-08-15T07:15:21.657Z,100555.66
2023-08-15T07:16:25.432Z,100547.31
2023-08-15T07:17:29.209Z,100552.47
2023-08-15T07:18:33.029Z,100557.25
2023-08-15T07:19:36.779Z,100548.50
2023-08-15T07:20:40.532Z,100550.16
2023-08-15T07:21:44.203Z,100534.94
2023-08-15T07:22:48.042Z,100533.34
2023-08-15T07:23:51.758Z,100553.75
2023-08-15T07:24:55.573Z,100548.66
2023-08-15T07:26:00.897Z,100557.41
2023-08-15T07:27:04.773Z,100550.31
2023-08-15T07:28:08.580Z,100542.78
2023-08-15T07:29:12.631Z,100535.63
2023-08-15T07:30:16.418Z,100538.41
2023-08-15T07:31:20.289Z,100543.97
2023-08-15T07:32:24.395Z,100512.38
2023-08-15T07:33:28.489Z,100539.56
2023-08-15T07:34:32.213Z,100535.19
2023-08-15T07:35:35.959Z,100535.63
2023-08-15T07:36:39.800Z,100542.34
2023-08-15T07:37:43.547Z,100523.59
2023-08-15T07:38:47.186Z,100535.63
2023-08-15T07:40:00.311Z,100534.03
2023-08-15T07:41:05.679Z,100534.06
2023-08-15T07:42:09.665Z,100508.47
2023-08-15T07:43:13.443Z,100523.75
2023-08-15T07:44:17.170Z,100528.53
2023-08-15T07:45:21.009Z,100526.13
2023-08-15T07:46:24.832Z,100523.75
2023-08-15T07:47:28.791Z,100522.16
2023-08-15T07:48:32.517Z,100524.94
2023-08-15T07:49:39.147Z,100525.75
2023-08-15T07:50:43.389Z,100510.59
2023-08-15T07:51:47.153Z,100518.13
2023-08-15T07:52:51.384Z,100514.97
2023-08-15T07:53:55.177Z,100493.00
2023-08-15T07:54:58.857Z,100519.31
2023-08-15T07:56:04.368Z,100509.34
2023-08-15T07:57:08.034Z,100524.09
2023-08-15T07:58:11.733Z,100513.38
2023-08-15T07:59:15.419Z,100502.69
2023-08-15T08:00:19.482Z,100509.41
2023-08-15T08:01:23.214Z,100503.00
2023-08-15T08:02:27.093Z,100505.00
2023-08-15T08:03:30.822Z,100510.56
2023-08-15T08:04:34.462Z,100499.44
2023-08-15T08:05:41.079Z,100499.91
2023-08-15T08:06:44.823Z,100496.72
2023-08-15T08:07:48.646Z,100502.66
2023-08-15T08:08:52.396Z,100493.91
2023-08-15T08:09:56.201Z,100505.47
2023-08-15T08:10:59.843Z,100501.50
2023-08-15T08:12:05.488Z,100504.72
2023-08-15T08:13:09.255Z,100497.19
2023-08-15T08:14:13.100Z,100499.50
2023-08-15T08:15:16.799Z,100492.81
2023-08-15T08:16:20.542Z,100500.41
2023-08-15T08:17:24.544Z,100488.06
2023-08-15T08:18:28.308Z,100482.00
2023-08-15T08:19:31.965Z,100473.38
2023-08-15T08:20:35.654Z,100469.03
2023-08-15T08:21:39.349Z,100481.38
2023-08-15T08:22:43.089Z,100473.88
2023-08-15T08:23:46.810Z,100475.06
2023-08-15T08:24:51.295Z,100482.53
2023-08-15T08:25:55.043Z,100482.03
2023-08-15T08:27:00.772Z,100484.31
2023-08-15T08:28:06.746Z,100487.78
2023-08-15T08:29:10.476Z,100482.53
2023-08-15T08:30:16.090Z,100490.41
2023-08-15T08:31:19.806Z,100492.34
2023-08-15T08:32:23.775Z,100493.88
2023-08-15T08:33:27.681Z,100490.16
2023-08-15T08:34:31.417Z,100492.84
2023-08-15T08:35:35.085Z,100495.56
2023-08-15T08:36:38.803Z,100505.75
2023-08-15T08:37:42.668Z,100486.84
2023-08-15T08:38:46.358Z,100513.78
2023-08-15T08:39:50.068Z,100508.94
2023-08-15T08:40:56.169Z,100504.03
2023-08-15T08:42:00.070Z,100515.50
2023-08-15T08:43:05.518Z,100518.13
2023-08-15T08:44:09.429Z,100516.88
2023-08-15T08:45:13.829Z,100516.44
2023-08-15T08:46:18.439Z,100530.66
2023-08-15T08:47:23.289Z,100519.97
2023-08-15T08:48:27.342Z,100519.50
2023-08-15T08:49:32.199Z,100518.97
2023-08-15T08:50:37.094Z,100516.63
2023-08-15T08:51:41.514Z,100520.16
2023-08-15T08:52:45.778Z,100502.97
2023-08-15T08:53:49.499Z,100507.34
2023-08-15T08:55:59.816Z,100514.09
2023-08-15T08:57:04.574Z,100512.53
2023-08-15T08:58:13.745Z,100521.19
2023-08-15T08:59:22.762Z,100525.06
2023-08-15T09:00:31.424Z,100501.94
2023-08-15T09:01:37.286Z,100518.63
2023-08-15T09:02:41.251Z,100517.38
2023-08-15T09:03:45.067Z,100510.25
2023-08-15T09:04:50.660Z,100508.63
2023-08-15T09:05:54.402Z,100507.09
2023-08-15T09:06:58.201Z,100507.84
2023-08-15T09:08:02.861Z,100500.34
2023-08-15T09:09:06.885Z,100500.72
2023-08-15T09:10:11.144Z,100500.28
2023-08-15T09:11:14.936Z,100502.25
2023-08-15T09:12:33.769Z,100493.53
2023-08-15T09:13:48.027Z,100490.63
2023-08-15T09:14:51.749Z,100493.38
2023-08-15T09:15:55.616Z,100514.34
2023-08-15T09:16:59.306Z,100480.81
2023-08-15T09:18:04.517Z,100505.19
2023-08-15T09:19:08.279Z,100509.03
2023-08-15T09:20:13.684Z,100509.03
2023-08-15T09:21:17.363Z,100483.47
2023-08-15T09:22:23.742Z,100494.66
2023-08-15T09:23:27.483Z,100489.06
2023-08-15T09:24:31.161Z,100504.63
2023-08-15T09:25:36.538Z,100496.94
2023-08-15T09:26:40.793Z,100506.03
2023-08-15T09:27:45.422Z,100502.78
2023-08-15T09:28:52.107Z,100505.13
2023-08-15T09:29:55.775Z,100498.41
2023-08-15T09:30:59.475Z,100501.59
2023-08-15T09:32:03.290Z,100496.81
2023-08-15T09:33:07.161Z,100499.56
2023-08-15T09:34:12.031Z,100499.13
2023-08-15T09:35:17.482Z,100498.34
2023-08-15T09:36:21.229Z,100509.75
2023-08-15T09:37:24.869Z,100516.47
2023-08-15T09:38:30.120Z,100512.09
2023-08-15T09:39:34.170Z,100514.06
2023-08-15T09:40:37.896Z,100526.69
2023-08-15T09:41:42.916Z,100521.16
2023-08-15T09:42:47.116Z,100527.47
2023-08-15T09:43:56.048Z,100533.41
2023-08-15T09:45:00.124Z,100535.34
2023-08-15T09:46:04.103Z,100539.91
2023-08-15T09:47:09.057Z,100534.56
2023-08-15T09:48:13.502Z,100538.56
2023-08-15T09:49:17.863Z,100542.94
2023-08-15T09:50:21.584Z,100536.97
2023-08-15T09:51:28.009Z,100535.75
2023-08-15T09:52:32.650Z,100539.25
2023-08-15T09:53:37.460Z,100494.75
2023-08-15T09:54:43.342Z,100494.94
2023-08-15T09:55:47.114Z,100550.38
2023-08-15T09:56:50.867Z,100546.03
2023-08-15T09:57:54.540Z,100549.94
2023-08-15T09:58:59.917Z,100553.50
2023-08-15T10:00:03.905Z,100566.00
2023-08-15T10:01:09.187Z,100560.84
2023-08-15T10:02:22.210Z,100562.22
2023-08-15T10:03:30.837Z,100525.72
2023-08-15T10:04:36.434Z,100562.97
2023-08-15T10:05:44.459Z,100555.47
2023-08-15T10:06:48.500Z,100557.44
2023-08-15T10:07:52.298Z,100552.25
2023-08-15T10:08:57.098Z,100525.44
2023-08-15T10:10:03.498Z,100560.19
2023-08-15T10:11:09.453Z,100557.78
2023-08-15T10:12:13.472Z,100556.91
2023-08-15T10:13:19.018Z,100552.09
2023-08-15T10:14:24.753Z,100558.31
2023-08-15T10:15:30.376Z,100558.59
2023-08-15T10:16:34.265Z,100558.97
2023-08-15T10:17:39.091Z,100556.13
2023-08-15T10:18:54.313Z,100563.75
2023-08-15T10:20:03.838Z,100559.78
2023-08-15T10:21:11.524Z,100563.25
2023-08-15T10:22:19.325Z,100566.03
2023-08-15T10:23:33.365Z,100565.66
2023-08-15T10:24:37.092Z,100554.38
2023-08-15T10:25:41.937Z,100565.56
2023-08-15T10:26:46.475Z,100566.28
2023-08-15T10:27:56.501Z,100556.34
2023-08-15T10:29:00.194Z,100562.31
2023-08-15T10:30:05.956Z,100569.00
2023-08-15T10:31:10.170Z,100564.25
2023-08-15T10:32:25.307Z,100564.25
2023-08-15T10:33:31.856Z,100574.41
2023-08-15T10:34:36.284Z,100573.91
2023-08-15T10:35:43.280Z,100571.50
2023-08-15T10:36:48.104Z,100567.22
2023-08-15T10:37:51.893Z,100572.38
2023-08-15T10:38:55.592Z,100569.91
2023-08-15T10:40:10.224Z,100586.13
2023-08-15T10:41:17.645Z,100581.66
2023-08-15T10:42:22.207Z,100579.19
2023-08-15T10:43:27.574Z,100570.16
2023-08-15T10:44:35.408Z,100576.78
2023-08-15T10:45:42.812Z,100592.69
2023-08-15T10:46:46.637Z,100577.94
2023-08-15T10:47:50.334Z,100595.66
2023-08-15T10:49:03.838Z,100584.06
2023-08-15T10:50:09.640Z,100598.50
2023-08-15T10:51:20.913Z,100590.28
2023-08-15T10:52:24.655Z,100593.50
2023-08-15T10:53:28.748Z,100598.56
2023-08-15T10:54:32.543Z,100601.78
2023-08-15T10:55:38.322Z,100601.31
2023-08-15T10:56:44.010Z,100604.44
2023-08-15T10:57:49.957Z,100610.03
2023-08-15T10:58:54.113Z,100610.22
2023-08-15T10:59:58.878Z,100614.00
2023-08-15T11:01:04.853Z,100618.19
2023-08-15T11:02:08.772Z,100596.63
2023-08-15T11:03:12.584Z,100617.78
2023-08-15T11:04:17.698Z,100624.84
2023-08-15T11:05:22.598Z,100626.97
2023-08-15T11:06:26.584Z,100611.00
2023-08-15T11:07:30.445Z,100623.97
2023-08-15T11:08:34.179Z,100620.66
2023-08-15T11:09:37.891Z,100627.31
2023-08-15T11:10:51.286Z,100616.28
2023-08-15T11:11:55.167Z,100611.09
2023-08-15T11:12:59.075Z,100616.97
2023-08-15T11:14:02.767Z,100611.47
2023-08-15T11:15:11.356Z,100613.88
2023-08-15T11:16:19.315Z,100621.00
2023-08-15T11:17:23.497Z,100614.56
2023-08-15T11:18:27.740Z,100613.88
2023-08-15T11:19:31.580Z,100618.13
2023-08-15T11:20:35.845Z,100620.06
2023-08-15T11:21:39.581Z,100618.84
2023-08-15T11:22:43.272Z,100618.50
2023-08-15T11:23:49.368Z,100621.59
2023-08-15T11:24:54.130Z,100620.22
2023-08-15T11:26:03.514Z,100615.19
2023-08-15T11:27:07.403Z,100620.38
2023-08-15T11:28:11.122Z,100620.72
2023-08-15T11:29:14.976Z,100631.31
2023-08-15T11:30:19.166Z,100623.38
2023-08-15T11:31:24.822Z,100626.94
2023-08-15T11:32:29.450Z,100631.31
2023-08-15T11:33:33.803Z,100625.69
2023-08-15T11:34:40.088Z,100623.16
2023-08-15T11:35:43.819Z,100632.00
2023-08-15T11:36:47.803Z,100636.34
2023-08-15T11:37:51.552Z,100637.50
2023-08-15T11:38:55.336Z,100637.63
2023-08-15T11:39:59.054Z,100645.91
2023-08-15T11:41:04.905Z,100605.59
2023-08-15T11:42:12.774Z,100623.66
2023-08-15T11:43:16.776Z,100640.50
2023-08-15T11:44:23.208Z,100651.28
2023-08-15T11:45:28.521Z,100648.53
2023-08-15T11:46:52.611Z,100648.19
2023-08-15T11:48:00.090Z,100616.16
2023-08-15T11:49:03.940Z,100639.91
2023-08-15T11:50:11.447Z,100627.06
2023-08-15T11:51:21.640Z,100629.59
2023-08-15T11:52:25.651Z,100630.03
2023-08-15T11:53:29.647Z,100624.53
2023-08-15T11:54:33.561Z,100622.56
2023-08-15T11:55:37.400Z,100629.25
2023-08-15T11:56:50.666Z,100628.56
2023-08-15T11:57:54.824Z,100616.06
2023-08-15T11:59:05.819Z,100623.72
2023-08-15T12:00:10.902Z,100623.25
2023-08-15T12:01:21.736Z,100623.72
2023-08-15T12:02:27.219Z,100627.16
2023-08-15T12:03:32.100Z,100627.16
2023-08-15T12:04:36.643Z,100635.91
2023-08-15T12:05:40.550Z,100627.16
2023-08-15T12:06:44.487Z,100642.22
2023-08-15T12:07:49.533Z,100629.03
2023-08-15T12:08:53.728Z,100647.72
2023-08-15T12:09:58.336Z,100644.41
2023-08-15T12:11:05.522Z,100648.31
2023-08-15T12:12:09.559Z,100663.72
2023-08-15T12:13:13.368Z,100660.97
2023-08-15T12:14:23.654Z,100668.84
2023-08-15T12:15:27.511Z,100667.25
2023-08-15T12:16:31.360Z,100675.97
2023-08-15T12:17:37.353Z,100624.09
2023-08-15T12:18:41.098Z,100679.09
2023-08-15T12:19:44.902Z,100672.34